Terminal Aerodrome Forecast
Issued by NWS Shreveport, LA

Current Version | Previous Version | Text Only | Print | Product List | Glossary On
Versions: 1 2 3 4 5 6 7 8 9 10 11 12 13 14 15 16 17 18 19 20 21 22 23 24 25
000
FTUS44 KSHV 041100 RRA
TAFELD
TAF
KELD 041145Z 0412/0512 17007KT P6SM BKN008
     FM041500 21007KT P6SM VCTS BKN009CB
      TEMPO 0416/0420 3SM -TSRA BR BKN006CB
     FM042000 02015G25KT P6SM -RA OVC010
     FM051100 01015KT 5SM -FZRA BR OVC009=

USA.gov is the U.S. government's official web portal to all federal, state and local government web resources and services.